createdAt,value
2023-03-23T15:58:18.370Z,84.64
2023-03-23T16:03:18.355Z,84.44
2023-03-23T16:08:18.324Z,84.09
2023-03-23T16:13:18.244Z,84.30
2023-03-23T16:18:18.200Z,83.73
2023-03-23T16:23:18.099Z,84.54
2023-03-23T16:28:17.985Z,83.18
2023-03-23T16:33:17.962Z,83.18
2023-03-23T16:38:17.891Z,83.53
2023-03-23T16:43:17.847Z,83.93
2023-03-23T16:48:17.917Z,83.83
2023-03-23T16:53:17.886Z,83.73
2023-03-23T16:58:18.178Z,83.73
2023-03-23T17:03:17.731Z,84.74
2023-03-23T17:08:17.548Z,84.07
2023-03-23T17:13:17.555Z,84.07
2023-03-23T17:18:17.450Z,84.07
2023-03-23T17:23:17.397Z,83.67
2023-03-23T17:28:18.875Z,83.42
2023-03-23T17:33:17.405Z,83.26
2023-03-23T17:38:17.335Z,83.15
2023-03-23T17:43:17.134Z,82.24
2023-03-23T17:48:17.113Z,81.53
2023-03-23T17:53:17.314Z,80.51
2023-03-23T17:58:17.006Z,79.97
2023-03-23T18:03:16.943Z,79.56
2023-03-23T18:08:16.863Z,77.36
2023-03-23T18:13:16.816Z,78.72
2023-03-23T18:18:16.757Z,77.06
2023-03-23T18:23:16.724Z,76.59
2023-03-23T18:28:16.727Z,76.82
2023-03-23T18:33:18.185Z,78.15
2023-03-23T18:38:16.583Z,77.84
2023-03-23T18:43:16.602Z,76.82
2023-03-23T18:48:16.450Z,77.53
2023-03-23T18:53:16.490Z,76.62
2023-03-23T18:58:16.373Z,75.57
2023-03-23T19:03:16.444Z,75.81
2023-03-23T19:08:16.231Z,76.52
2023-03-23T19:13:16.293Z,77.33
2023-03-23T19:18:16.161Z,76.11
2023-03-23T19:23:16.074Z,76.76
2023-03-23T19:33:16.000Z,75.81
2023-03-23T19:38:15.924Z,76.15
2023-03-23T19:43:15.925Z,77.33
2023-03-23T19:48:16.267Z,75.50
2023-03-23T19:53:16.106Z,76.52
2023-03-23T19:58:16.748Z,76.76
2023-03-23T20:03:16.030Z,76.04
2023-03-23T20:08:16.119Z,76.11
2023-03-23T20:13:15.587Z,76.11
2023-03-23T20:18:15.501Z,77.23
2023-03-23T20:23:15.534Z,76.82
2023-03-23T20:28:15.389Z,77.74
2023-03-23T20:33:15.332Z,77.03
2023-03-23T20:38:15.285Z,76.18
2023-03-23T20:43:15.321Z,76.14
2023-03-23T20:48:15.116Z,76.68
2023-03-23T20:53:15.212Z,75.98
2023-03-23T20:58:15.056Z,75.33
2023-03-23T21:03:23.852Z,75.19
2023-03-23T21:08:14.933Z,75.84
2023-03-23T21:13:14.901Z,75.63
2023-03-23T21:18:14.812Z,75.12
2023-03-23T21:23:14.856Z,75.33
2023-03-23T21:28:14.775Z,75.90
2023-03-23T21:33:14.705Z,76.45
2023-03-23T21:38:14.644Z,78.08
2023-03-23T21:43:14.601Z,78.08
2023-03-23T21:48:14.595Z,79.23
2023-03-23T21:53:14.476Z,80.04
2023-03-23T21:58:17.794Z,81.10
2023-03-23T22:03:14.361Z,80.76
2023-03-23T22:08:16.358Z,81.81
2023-03-23T22:13:14.217Z,83.03
2023-03-23T22:18:14.180Z,83.48
2023-03-23T22:23:14.096Z,84.19
2023-03-23T22:28:14.054Z,85.25
2023-03-23T22:33:14.035Z,86.47
2023-03-23T22:38:13.965Z,85.96
2023-03-23T22:43:13.916Z,86.27
2023-03-23T22:48:13.955Z,86.88
2023-03-23T22:53:13.807Z,86.98
2023-03-23T22:58:13.857Z,88.00
2023-03-23T23:03:13.778Z,87.90
2023-03-23T23:08:15.872Z,88.45
2023-03-23T23:13:13.636Z,88.45
2023-03-23T23:18:13.678Z,88.71
2023-03-23T23:23:13.658Z,89.77
2023-03-23T23:28:13.504Z,88.81
2023-03-23T23:33:13.486Z,88.75
2023-03-23T23:38:14.389Z,89.16
2023-03-23T23:43:13.362Z,89.26
2023-03-23T23:48:13.382Z,89.42
2023-03-23T23:53:14.230Z,89.47
2023-03-23T23:58:13.795Z,89.97
